createdAt,value
2022-11-28T00:00:01.288Z,86.50
2022-11-28T00:02:33.856Z,86.52
2022-11-28T00:05:11.357Z,86.19
2022-11-28T00:07:43.464Z,86.15
2022-11-28T00:10:15.839Z,86.19
2022-11-28T00:12:47.882Z,86.21
2022-11-28T00:15:20.000Z,86.05
2022-11-28T00:17:54.679Z,85.99
2022-11-28T00:20:26.953Z,85.85
2022-11-28T00:22:58.914Z,85.95
2022-11-28T00:25:30.901Z,85.90
2022-11-28T00:28:02.919Z,85.89
2022-11-28T00:30:39.033Z,85.91
2022-11-28T00:33:25.151Z,85.88
2022-11-28T00:36:07.244Z,86.20
2022-11-28T00:38:42.143Z,85.97
2022-11-28T00:41:40.342Z,85.89
2022-11-28T00:44:12.398Z,85.97
2022-11-28T00:46:44.529Z,85.96
2022-11-28T00:49:18.908Z,86.18
2022-11-28T00:51:54.590Z,85.96
2022-11-28T00:54:27.989Z,85.78
2022-11-28T00:57:00.154Z,85.81
2022-11-28T00:59:33.142Z,86.06
2022-11-28T01:02:05.098Z,85.82
2022-11-28T01:04:37.858Z,85.60
2022-11-28T01:07:09.765Z,85.56
2022-11-28T01:09:42.124Z,85.52
2022-11-28T01:12:14.208Z,85.64
2022-11-28T01:14:46.026Z,85.51
2022-11-28T01:17:17.891Z,85.56
2022-11-28T01:19:49.996Z,85.63
2022-11-28T01:22:21.901Z,85.69
2022-11-28T01:24:53.985Z,85.96
2022-11-28T01:27:26.364Z,85.89
2022-11-28T01:29:58.316Z,85.91
2022-11-28T01:32:30.233Z,85.76
2022-11-28T01:35:02.808Z,85.55
2022-11-28T01:37:34.981Z,85.89
2022-11-28T01:40:12.099Z,85.90
2022-11-28T01:42:44.025Z,86.18
2022-11-28T01:45:20.578Z,86.23
2022-11-28T01:47:58.900Z,86.43
2022-11-28T01:50:33.400Z,86.55
2022-11-28T01:53:13.454Z,86.62
2022-11-28T01:55:54.423Z,86.78
2022-11-28T01:58:32.870Z,86.60
2022-11-28T02:01:06.417Z,87.14
2022-11-28T02:03:45.003Z,87.04
2022-11-28T02:06:19.726Z,87.14
2022-11-28T02:08:55.622Z,87.40
2022-11-28T02:15:22.420Z,87.36
2022-11-28T02:21:26.904Z,87.77
2022-11-28T02:24:45.642Z,88.19
2022-11-28T02:28:22.445Z,88.14
2022-11-28T02:31:04.985Z,88.34
2022-11-28T02:33:37.914Z,88.49
2022-11-28T02:36:36.791Z,88.58
2022-11-28T02:39:13.288Z,88.81
2022-11-28T02:41:47.251Z,88.89
2022-11-28T02:44:18.646Z,88.69
2022-11-28T02:46:55.929Z,88.59
2022-11-28T02:49:41.614Z,88.61
2022-11-28T02:52:13.416Z,88.60
2022-11-28T02:54:44.350Z,88.83
2022-11-28T02:57:13.082Z,88.91
2022-11-28T02:59:51.274Z,88.68
2022-11-28T03:02:27.040Z,88.85
2022-11-28T03:05:01.112Z,89.19
2022-11-28T03:07:53.675Z,89.06
2022-11-28T03:10:30.077Z,89.20
2022-11-28T03:13:11.332Z,89.11
2022-11-28T03:16:03.389Z,89.16
2022-11-28T03:18:37.775Z,88.96
2022-11-28T03:21:12.729Z,89.34
2022-11-28T03:23:46.417Z,89.54
2022-11-28T03:26:20.308Z,89.28
2022-11-28T03:28:56.259Z,89.20
2022-11-28T03:31:33.138Z,89.19
2022-11-28T03:34:07.520Z,89.31
2022-11-28T03:36:42.725Z,89.32
2022-11-28T03:39:15.370Z,89.48
2022-11-28T03:41:49.914Z,89.73
2022-11-28T03:44:23.129Z,89.68
2022-11-28T03:46:54.535Z,89.74
2022-11-28T03:49:29.045Z,89.88
2022-11-28T03:52:03.025Z,89.79
2022-11-28T03:54:52.843Z,89.71
2022-11-28T03:57:28.596Z,89.98
2022-11-28T04:00:00.036Z,90.11
2022-11-28T04:02:34.008Z,90.01
2022-11-28T04:05:06.799Z,90.28
2022-11-28T04:07:42.637Z,90.14
2022-11-28T04:10:20.512Z,89.88
2022-11-28T04:13:01.267Z,89.74
2022-11-28T04:15:37.727Z,90.03
2022-11-28T04:18:18.654Z,90.06
2022-11-28T04:20:53.221Z,90.36
2022-11-28T04:23:24.101Z,90.19
2022-11-28T04:25:56.716Z,90.30
2022-11-28T04:28:29.297Z,90.03
2022-11-28T04:31:01.063Z,90.63
2022-11-28T04:33:33.007Z,90.44
2022-11-28T04:36:04.813Z,90.61
2022-11-28T04:38:34.681Z,90.45
2022-11-28T04:41:10.458Z,90.47
2022-11-28T04:43:42.837Z,90.48
2022-11-28T04:46:15.721Z,90.32
2022-11-28T04:48:44.780Z,90.00
2022-11-28T04:51:20.071Z,90.30
2022-11-28T04:53:55.369Z,90.25
2022-11-28T04:56:28.728Z,90.04
2022-11-28T04:59:00.194Z,90.25
2022-11-28T05:01:31.231Z,90.44
2022-11-28T05:04:02.477Z,90.24
2022-11-28T05:06:33.765Z,90.42
2022-11-28T05:09:02.322Z,90.18
2022-11-28T05:11:31.596Z,90.21
2022-11-28T05:14:00.056Z,90.35
2022-11-28T05:16:28.623Z,90.16
2022-11-28T05:18:57.356Z,90.19
2022-11-28T05:21:26.040Z,90.12
2022-11-28T05:23:55.213Z,90.07
2022-11-28T05:26:23.704Z,90.13
2022-11-28T05:28:56.506Z,90.34
2022-11-28T05:31:25.264Z,90.33
2022-11-28T05:33:54.839Z,90.39
2022-11-28T05:36:23.877Z,90.39
2022-11-28T05:38:52.334Z,89.88
2022-11-28T05:41:22.473Z,90.09
2022-11-28T05:43:51.041Z,90.16
2022-11-28T05:46:20.898Z,90.36
2022-11-28T05:48:49.749Z,90.10
2022-11-28T05:51:18.329Z,90.38
2022-11-28T05:53:47.123Z,90.30
2022-11-28T05:56:17.367Z,90.24
2022-11-28T05:58:45.967Z,90.56
2022-11-28T06:01:17.611Z,90.15
2022-11-28T06:03:46.754Z,90.10
2022-11-28T06:06:17.475Z,90.50
2022-11-28T06:08:47.615Z,90.23
2022-11-28T06:11:16.945Z,89.98
2022-11-28T06:13:49.238Z,90.25
2022-11-28T06:16:23.492Z,90.42
2022-11-28T06:18:54.371Z,90.32
2022-11-28T06:21:24.322Z,90.24
2022-11-28T06:23:53.419Z,89.98
2022-11-28T06:26:24.367Z,90.11
2022-11-28T06:28:54.845Z,90.25
2022-11-28T06:31:26.625Z,90.12
2022-11-28T06:33:55.680Z,90.28
2022-11-28T06:36:25.627Z,90.48
2022-11-28T06:38:54.166Z,90.43
2022-11-28T06:41:25.172Z,90.06
2022-11-28T06:43:54.923Z,89.80
2022-11-28T06:46:24.034Z,90.09
2022-11-28T06:48:52.773Z,89.88
2022-11-28T06:51:21.643Z,89.40
2022-11-28T06:53:50.561Z,89.49
2022-11-28T06:56:19.944Z,89.15
2022-11-28T06:58:54.153Z,88.74
2022-11-28T07:01:25.143Z,88.63
2022-11-28T07:03:54.036Z,88.43
2022-11-28T07:06:25.240Z,88.30
2022-11-28T07:08:55.103Z,88.09
2022-11-28T07:11:25.542Z,87.89
2022-11-28T07:13:55.410Z,88.19
2022-11-28T07:16:26.038Z,88.15
2022-11-28T07:18:56.398Z,87.80
2022-11-28T07:21:24.910Z,87.86
2022-11-28T07:23:54.971Z,87.59
2022-11-28T07:26:24.017Z,87.52
2022-11-28T07:28:52.605Z,87.60
2022-11-28T07:31:24.604Z,87.71
2022-11-28T07:33:53.314Z,87.62
2022-11-28T07:36:24.454Z,87.70
2022-11-28T07:38:54.695Z,87.45
2022-11-28T07:41:26.480Z,87.58
2022-11-28T07:43:57.663Z,87.48
2022-11-28T07:46:28.638Z,87.30
2022-11-28T07:48:57.174Z,87.40
2022-11-28T07:51:28.546Z,87.20
2022-11-28T07:53:57.569Z,87.36
2022-11-28T07:56:39.358Z,87.01
2022-11-28T07:59:16.962Z,86.86
2022-11-28T08:01:45.610Z,86.90
2022-11-28T08:04:14.235Z,87.30
2022-11-28T08:06:44.020Z,87.39
2022-11-28T08:09:12.482Z,87.20
2022-11-28T08:11:42.862Z,87.13
2022-11-28T08:14:11.325Z,86.99
2022-11-28T08:16:44.246Z,86.68
2022-11-28T08:19:12.885Z,86.83
2022-11-28T08:21:44.183Z,87.04
2022-11-28T08:24:12.887Z,87.47
2022-11-28T08:26:42.071Z,87.58
2022-11-28T08:29:10.724Z,87.37
2022-11-28T08:31:40.268Z,87.42
2022-11-28T08:34:12.394Z,87.35
2022-11-28T08:36:42.703Z,87.54
2022-11-28T08:39:23.893Z,87.47
2022-11-28T08:41:56.418Z,87.50
2022-11-28T08:44:26.190Z,87.55
2022-11-28T08:46:54.781Z,87.54
2022-11-28T08:49:23.425Z,87.35
2022-11-28T08:51:51.893Z,87.18
2022-11-28T08:54:20.604Z,86.94
2022-11-28T08:56:49.174Z,86.91
2022-11-28T08:59:17.655Z,87.15
2022-11-28T09:01:47.336Z,86.89
2022-11-28T09:04:15.934Z,86.88
2022-11-28T09:06:44.486Z,87.10
2022-11-28T09:09:12.984Z,86.87
2022-11-28T09:11:41.810Z,86.74
2022-11-28T09:14:10.430Z,86.68
2022-11-28T09:16:39.670Z,86.77
2022-11-28T09:19:10.514Z,86.80
2022-11-28T09:21:40.047Z,86.63
2022-11-28T09:24:09.651Z,86.61
2022-11-28T09:26:38.057Z,86.32
2022-11-28T09:29:06.871Z,86.39
2022-11-28T09:31:35.404Z,86.55
2022-11-28T09:34:04.386Z,86.28
2022-11-28T09:36:35.605Z,86.27
2022-11-28T09:39:06.555Z,86.13
2022-11-28T09:41:50.704Z,85.93
2022-11-28T09:44:25.532Z,85.71
2022-11-28T09:46:57.911Z,85.82
2022-11-28T09:49:39.859Z,85.86
2022-11-28T09:52:28.012Z,86.09
2022-11-28T09:55:11.029Z,85.91
2022-11-28T09:57:43.257Z,86.17
2022-11-28T10:00:21.046Z,86.03
2022-11-28T10:03:06.776Z,85.96
2022-11-28T10:05:41.943Z,86.13
2022-11-28T10:08:29.555Z,86.19
2022-11-28T10:11:04.234Z,86.04
2022-11-28T10:14:07.145Z,85.87
2022-11-28T10:16:47.157Z,86.04
2022-11-28T10:19:55.324Z,85.93
2022-11-28T10:22:20.663Z,86.05
2022-11-28T10:24:53.668Z,85.80
2022-11-28T10:27:29.759Z,85.80
2022-11-28T10:30:02.520Z,85.64
2022-11-28T10:32:35.174Z,85.33
2022-11-28T10:35:07.615Z,85.22
2022-11-28T10:37:38.355Z,85.19
2022-11-28T10:40:20.193Z,85.05
2022-11-28T10:42:55.697Z,85.01
2022-11-28T10:45:36.719Z,85.22
2022-11-28T10:48:39.220Z,84.91
2022-11-28T10:51:16.978Z,85.08
2022-11-28T10:53:51.929Z,84.97
2022-11-28T10:56:31.950Z,84.73
2022-11-28T10:59:10.805Z,84.58
2022-11-28T11:01:43.754Z,84.49
2022-11-28T11:04:21.518Z,84.56
2022-11-28T11:07:14.817Z,84.30
2022-11-28T11:09:47.225Z,84.01
2022-11-28T11:12:23.440Z,84.03
2022-11-28T11:14:52.096Z,84.20
2022-11-28T11:17:36.627Z,83.90
2022-11-28T11:20:31.509Z,83.88
2022-11-28T11:23:01.924Z,84.01
2022-11-28T11:25:32.029Z,83.83
2022-11-28T11:28:06.052Z,84.06
2022-11-28T11:30:38.230Z,83.66
2022-11-28T11:33:15.337Z,83.62
2022-11-28T11:35:50.204Z,83.51
2022-11-28T11:38:37.504Z,83.49
2022-11-28T11:41:28.164Z,83.21
2022-11-28T11:44:34.516Z,83.03
2022-11-28T11:47:05.250Z,83.26
2022-11-28T11:49:36.329Z,83.36
2022-11-28T11:52:14.025Z,83.26
2022-11-28T11:54:56.390Z,83.31
2022-11-28T11:57:35.370Z,83.39
2022-11-28T12:00:10.677Z,83.35
2022-11-28T12:02:51.974Z,82.94
2022-11-28T12:05:23.622Z,82.98
2022-11-28T12:07:58.244Z,82.96
2022-11-28T12:10:30.879Z,82.90
2022-11-28T12:13:02.448Z,82.89
2022-11-28T12:15:40.181Z,83.10
2022-11-28T12:18:26.166Z,82.90
2022-11-28T12:21:10.061Z,83.09
2022-11-28T12:23:55.280Z,83.08
2022-11-28T12:26:33.425Z,83.13
2022-11-28T12:31:56.268Z,83.45
2022-11-28T12:34:37.390Z,83.83
2022-11-28T12:37:18.499Z,83.83
2022-11-28T12:39:55.992Z,83.93
2022-11-28T12:42:35.608Z,83.83
2022-11-28T12:45:39.077Z,83.75
2022-11-28T12:48:25.693Z,83.80
2022-11-28T12:51:00.836Z,83.72
2022-11-28T12:53:55.473Z,83.80
2022-11-28T12:56:44.793Z,83.87
2022-11-28T12:59:25.216Z,83.82
2022-11-28T13:02:09.460Z,83.84
2022-11-28T13:05:09.888Z,83.61
2022-11-28T13:07:48.481Z,83.59
2022-11-28T13:10:24.822Z,83.76
2022-11-28T13:12:58.480Z,83.62
2022-11-28T13:15:43.021Z,83.39
2022-11-28T13:18:24.165Z,83.42
2022-11-28T13:20:58.483Z,83.33
2022-11-28T13:23:33.642Z,83.59
2022-11-28T13:26:10.646Z,83.53
2022-11-28T13:28:50.681Z,83.17
2022-11-28T13:31:27.213Z,83.02
2022-11-28T13:33:57.135Z,83.24
2022-11-28T13:39:35.399Z,83.24
2022-11-28T13:45:26.687Z,83.30
2022-11-28T13:48:20.313Z,83.23
2022-11-28T13:51:01.584Z,83.06
2022-11-28T13:53:30.191Z,82.59
2022-11-28T13:56:23.580Z,82.73
2022-11-28T13:59:00.168Z,82.76
2022-11-28T14:01:31.188Z,82.69
2022-11-28T14:04:11.991Z,82.71
2022-11-28T14:06:46.800Z,82.89
2022-11-28T14:09:36.886Z,82.65
2022-11-28T14:12:17.186Z,82.72
2022-11-28T14:15:08.387Z,82.83
2022-11-28T14:17:52.089Z,82.84
2022-11-28T14:20:30.663Z,82.86
2022-11-28T14:23:17.956Z,82.62
2022-11-28T14:25:49.415Z,82.85
2022-11-28T14:28:27.146Z,83.04
2022-11-28T14:31:05.107Z,82.83
2022-11-28T14:33:41.726Z,82.78
2022-11-28T14:36:27.978Z,82.87
2022-11-28T14:39:33.419Z,82.88
2022-11-28T14:42:59.511Z,82.80
2022-11-28T14:45:44.572Z,82.88
2022-11-28T14:48:29.535Z,82.92
2022-11-28T14:51:02.217Z,83.12
2022-11-28T14:53:44.336Z,83.07
2022-11-28T14:56:26.882Z,83.12
2022-11-28T14:59:04.286Z,83.31
2022-11-28T15:01:50.308Z,83.20
2022-11-28T15:04:41.798Z,83.04
2022-11-28T15:07:24.296Z,83.16
2022-11-28T15:10:07.197Z,83.18
2022-11-28T15:12:51.267Z,83.21
2022-11-28T15:15:22.053Z,83.04
2022-11-28T15:17:53.946Z,83.07
2022-11-28T15:20:28.401Z,82.91
2022-11-28T15:22:57.168Z,82.97
2022-11-28T15:25:28.893Z,83.10
2022-11-28T15:28:11.908Z,83.16
2022-11-28T15:30:45.060Z,82.90
2022-11-28T15:33:14.303Z,83.04
2022-11-28T15:35:56.064Z,83.20
2022-11-28T15:38:25.197Z,83.15
2022-11-28T15:40:56.076Z,82.96
2022-11-28T15:43:26.217Z,83.07
2022-11-28T15:45:58.286Z,83.07
2022-11-28T15:48:38.780Z,82.86
2022-11-28T15:51:26.108Z,82.92
2022-11-28T15:53:55.537Z,83.11
2022-11-28T15:56:24.234Z,83.25
2022-11-28T15:58:53.645Z,83.22
2022-11-28T16:01:26.643Z,83.10
2022-11-28T16:04:01.751Z,83.19
2022-11-28T16:06:35.613Z,83.35
2022-11-28T16:09:11.929Z,83.27
2022-11-28T16:11:44.746Z,83.24
2022-11-28T16:14:21.348Z,83.16
2022-11-28T16:16:50.298Z,83.06
2022-11-28T16:19:25.421Z,83.41
2022-11-28T16:21:57.378Z,83.46
2022-11-28T16:24:29.380Z,83.55
2022-11-28T16:27:01.189Z,83.39
2022-11-28T16:29:34.644Z,83.34
2022-11-28T16:32:21.117Z,83.29
2022-11-28T16:35:04.463Z,83.35
2022-11-28T16:37:33.600Z,83.52
2022-11-28T16:40:06.747Z,83.57
2022-11-28T16:42:35.573Z,83.58
2022-11-28T16:45:10.199Z,83.62
2022-11-28T16:47:39.303Z,83.68
2022-11-28T16:50:20.210Z,83.51
2022-11-28T16:52:51.580Z,83.52
2022-11-28T16:55:39.930Z,83.46
2022-11-28T16:58:18.164Z,83.63
2022-11-28T17:00:58.417Z,83.38
2022-11-28T17:03:46.823Z,83.54
2022-11-28T17:06:27.508Z,83.59
2022-11-28T17:08:56.430Z,83.45
2022-11-28T17:11:29.372Z,83.48
2022-11-28T17:13:59.599Z,83.48
2022-11-28T17:16:36.154Z,83.39
2022-11-28T17:19:04.902Z,83.45
2022-11-28T17:21:37.812Z,83.43
2022-11-28T17:24:13.362Z,83.41
2022-11-28T17:26:41.962Z,83.48
2022-11-28T17:29:41.508Z,83.44
2022-11-28T17:32:13.587Z,83.47
2022-11-28T17:34:42.796Z,83.64
2022-11-28T17:37:12.228Z,83.42
2022-11-28T17:40:01.083Z,83.30
2022-11-28T17:42:29.946Z,83.43
2022-11-28T17:45:00.679Z,83.28
2022-11-28T17:47:31.682Z,83.29
2022-11-28T17:50:00.298Z,83.34
2022-11-28T17:52:29.772Z,83.07
2022-11-28T17:55:06.634Z,83.08
2022-11-28T17:57:36.790Z,83.15
2022-11-28T18:00:08.726Z,83.02
2022-11-28T18:02:48.397Z,82.97
2022-11-28T18:05:20.738Z,82.97
2022-11-28T18:07:50.845Z,83.18
2022-11-28T18:10:19.397Z,83.05
2022-11-28T18:12:48.210Z,83.15
2022-11-28T18:15:17.111Z,83.11
2022-11-28T18:17:56.118Z,83.07
2022-11-28T18:20:28.020Z,83.35
2022-11-28T18:23:03.308Z,83.18
2022-11-28T18:25:31.881Z,83.19
2022-11-28T18:28:19.957Z,83.11
2022-11-28T18:30:49.777Z,83.32
2022-11-28T18:33:38.703Z,83.20
2022-11-28T18:36:29.389Z,83.14
2022-11-28T18:39:01.190Z,83.29
2022-11-28T18:41:29.821Z,83.31
2022-11-28T18:44:00.699Z,83.37
2022-11-28T18:46:33.169Z,83.25
2022-11-28T18:49:04.794Z,83.23
2022-11-28T18:51:35.029Z,83.13
2022-11-28T18:54:05.470Z,83.09
2022-11-28T18:56:35.023Z,83.15
2022-11-28T18:59:06.730Z,83.08
2022-11-28T19:01:35.724Z,82.96
2022-11-28T19:04:08.662Z,82.92
2022-11-28T19:06:39.447Z,83.06
2022-11-28T19:09:12.017Z,82.78
2022-11-28T19:11:42.540Z,82.59
2022-11-28T19:14:16.466Z,82.82
2022-11-28T19:16:46.246Z,82.65
2022-11-28T19:19:18.849Z,82.61
2022-11-28T19:21:49.444Z,82.53
2022-11-28T19:24:18.065Z,82.72
2022-11-28T19:26:46.693Z,82.52
2022-11-28T19:29:15.661Z,82.55
2022-11-28T19:31:44.560Z,82.44
2022-11-28T19:34:15.105Z,82.32
2022-11-28T19:36:46.631Z,82.32
2022-11-28T19:39:18.162Z,82.41
2022-11-28T19:41:48.010Z,82.45
2022-11-28T19:44:16.691Z,82.19
2022-11-28T19:46:45.486Z,82.42
2022-11-28T19:49:23.091Z,82.51
2022-11-28T19:51:53.812Z,82.58
2022-11-28T19:54:23.047Z,82.41
2022-11-28T19:56:54.814Z,82.25
2022-11-28T19:59:23.689Z,82.28
2022-11-28T20:01:54.374Z,82.34
2022-11-28T20:04:23.956Z,82.46
2022-11-28T20:06:52.789Z,82.42
2022-11-28T20:09:21.910Z,82.65
2022-11-28T20:11:50.545Z,82.39
2022-11-28T20:14:20.392Z,82.36
2022-11-28T20:16:49.203Z,82.46
2022-11-28T20:19:18.148Z,82.32
2022-11-28T20:21:47.178Z,82.32
2022-11-28T20:24:16.800Z,82.32
2022-11-28T20:26:49.868Z,82.23
2022-11-28T20:29:19.782Z,82.19
2022-11-28T20:31:49.181Z,82.50
2022-11-28T20:34:18.920Z,82.39
2022-11-28T20:36:52.836Z,82.24
2022-11-28T20:39:22.185Z,82.31
2022-11-28T20:41:51.039Z,82.22
2022-11-28T20:44:19.721Z,82.05
2022-11-28T20:46:49.335Z,82.18
2022-11-28T20:49:21.955Z,82.23
2022-11-28T20:51:50.532Z,82.31
2022-11-28T20:54:19.096Z,82.18
2022-11-28T20:59:37.053Z,82.33
2022-11-28T21:02:05.974Z,82.51
2022-11-28T21:04:37.156Z,82.51
2022-11-28T21:07:05.689Z,82.39
2022-11-28T21:09:34.319Z,82.29
2022-11-28T21:12:03.114Z,82.16
2022-11-28T21:14:31.795Z,82.29
2022-11-28T21:17:03.320Z,82.36
2022-11-28T21:19:31.751Z,82.34
2022-11-28T21:22:00.420Z,82.57
2022-11-28T21:24:29.241Z,82.32
2022-11-28T21:26:58.107Z,82.42
2022-11-28T21:29:26.575Z,82.21
2022-11-28T21:31:55.384Z,82.40
2022-11-28T21:34:23.956Z,82.16
2022-11-28T21:36:54.170Z,82.40
2022-11-28T21:39:38.654Z,82.30
2022-11-28T21:42:20.159Z,82.27
2022-11-28T21:44:49.429Z,82.39
2022-11-28T21:47:18.112Z,82.32
2022-11-28T21:49:47.802Z,82.10
2022-11-28T21:52:18.688Z,82.22
2022-11-28T21:54:47.632Z,82.41
2022-11-28T21:57:16.095Z,82.48
2022-11-28T21:59:48.065Z,82.28
2022-11-28T22:02:16.978Z,82.34
2022-11-28T22:04:45.917Z,82.41
2022-11-28T22:07:14.994Z,82.48
2022-11-28T22:09:44.185Z,82.51
2022-11-28T22:12:14.434Z,82.67
2022-11-28T22:14:43.163Z,82.71
2022-11-28T22:17:12.248Z,82.56
2022-11-28T22:19:43.205Z,82.54
2022-11-28T22:22:12.004Z,82.58
2022-11-28T22:24:41.604Z,82.55
2022-11-28T22:27:10.893Z,82.45
2022-11-28T22:29:39.389Z,82.65
2022-11-28T22:32:08.549Z,82.52
2022-11-28T22:34:40.041Z,82.59
2022-11-28T22:37:09.668Z,82.59
2022-11-28T22:39:42.632Z,82.48
2022-11-28T22:42:13.422Z,82.66
2022-11-28T22:44:45.613Z,82.43
2022-11-28T22:47:15.607Z,82.62
2022-11-28T22:49:49.641Z,82.53
2022-11-28T22:52:18.145Z,82.56
2022-11-28T22:54:48.722Z,82.54
2022-11-28T22:57:22.280Z,82.50
2022-11-28T22:59:51.421Z,82.67
2022-11-28T23:02:49.086Z,82.68
2022-11-28T23:05:18.466Z,82.63
2022-11-28T23:07:49.558Z,82.46
2022-11-28T23:10:19.249Z,82.23
2022-11-28T23:12:47.875Z,82.37
2022-11-28T23:15:16.765Z,82.25
2022-11-28T23:17:45.388Z,82.36
2022-11-28T23:20:33.635Z,82.61
2022-11-28T23:23:02.196Z,82.42
2022-11-28T23:25:30.621Z,82.45
2022-11-28T23:28:00.278Z,82.56
2022-11-28T23:30:29.185Z,82.36
2022-11-28T23:32:58.239Z,82.61
2022-11-28T23:35:28.322Z,82.54
2022-11-28T23:37:57.432Z,82.49
2022-11-28T23:40:29.004Z,82.47
2022-11-28T23:43:00.048Z,82.37
2022-11-28T23:45:28.737Z,82.45
2022-11-28T23:47:57.512Z,82.25
2022-11-28T23:50:26.634Z,82.24
2022-11-28T23:52:55.075Z,82.29
2022-11-28T23:55:23.655Z,82.35
2022-11-28T23:57:53.559Z,82.30
